sensor_id;sensor_type;location;lat;lon;timestamp;P1;durP1;ratioP1;P2;durP2;ratioP2
2570;SDS011;1295;51.130;6.732;2024-02-16T00:00:37;1.77;;;1.67;;
2570;SDS011;1295;51.130;6.732;2024-02-16T00:03:03;2.60;;;2.20;;
2570;SDS011;1295;51.130;6.732;2024-02-16T00:05:29;1.90;;;1.80;;
2570;SDS011;1295;51.130;6.732;2024-02-16T00:08:01;3.00;;;2.20;;
2570;SDS011;1295;51.130;6.732;2024-02-16T00:10:28;2.50;;;2.40;;
2570;SDS011;1295;51.130;6.732;2024-02-16T00:12:54;3.33;;;2.20;;
2570;SDS011;1295;51.130;6.732;2024-02-16T00:15:19;2.87;;;2.30;;
2570;SDS011;1295;51.130;6.732;2024-02-16T00:17:46;1.90;;;1.80;;
2570;SDS011;1295;51.130;6.732;2024-02-16T00:20:11;2.50;;;2.30;;
2570;SDS011;1295;51.130;6.732;2024-02-16T00:22:38;2.60;;;2.23;;
2570;SDS011;1295;51.130;6.732;2024-02-16T00:25:04;2.00;;;1.90;;
2570;SDS011;1295;51.130;6.732;2024-02-16T00:27:30;5.67;;;2.33;;
2570;SDS011;1295;51.130;6.732;2024-02-16T00:29:56;2.70;;;2.50;;
2570;SDS011;1295;51.130;6.732;2024-02-16T00:32:37;2.40;;;2.30;;
2570;SDS011;1295;51.130;6.732;2024-02-16T00:35:03;2.50;;;2.03;;
2570;SDS011;1295;51.130;6.732;2024-02-16T00:37:29;2.73;;;2.53;;
2570;SDS011;1295;51.130;6.732;2024-02-16T00:39:55;4.27;;;2.70;;
2570;SDS011;1295;51.130;6.732;2024-02-16T00:42:21;2.30;;;2.20;;
2570;SDS011;1295;51.130;6.732;2024-02-16T00:44:46;2.80;;;2.70;;
2570;SDS011;1295;51.130;6.732;2024-02-16T00:47:12;3.30;;;2.40;;
2570;SDS011;1295;51.130;6.732;2024-02-16T00:49:37;2.00;;;1.90;;
2570;SDS011;1295;51.130;6.732;2024-02-16T00:52:04;2.40;;;2.30;;
2570;SDS011;1295;51.130;6.732;2024-02-16T00:54:30;2.40;;;2.20;;
2570;SDS011;1295;51.130;6.732;2024-02-16T00:56:55;3.70;;;2.13;;
2570;SDS011;1295;51.130;6.732;2024-02-16T00:59:22;2.23;;;2.13;;
2570;SDS011;1295;51.130;6.732;2024-02-16T01:01:47;2.97;;;2.30;;
2570;SDS011;1295;51.130;6.732;2024-02-16T01:04:13;2.27;;;2.03;;
2570;SDS011;1295;51.130;6.732;2024-02-16T01:06:39;2.50;;;2.40;;
2570;SDS011;1295;51.130;6.732;2024-02-16T01:09:05;2.67;;;2.47;;
2570;SDS011;1295;51.130;6.732;2024-02-16T01:11:31;2.00;;;1.90;;
2570;SDS011;1295;51.130;6.732;2024-02-16T01:13:57;3.00;;;2.80;;
2570;SDS011;1295;51.130;6.732;2024-02-16T01:16:23;2.70;;;2.50;;
2570;SDS011;1295;51.130;6.732;2024-02-16T01:18:48;2.80;;;2.60;;
2570;SDS011;1295;51.130;6.732;2024-02-16T01:21:14;2.40;;;2.30;;
2570;SDS011;1295;51.130;6.732;2024-02-16T01:23:40;4.50;;;3.27;;
2570;SDS011;1295;51.130;6.732;2024-02-16T01:26:05;2.33;;;2.23;;
2570;SDS011;1295;51.130;6.732;2024-02-16T01:28:31;2.57;;;2.20;;
2570;SDS011;1295;51.130;6.732;2024-02-16T01:30:56;1.90;;;1.80;;
2570;SDS011;1295;51.130;6.732;2024-02-16T01:33:32;2.30;;;2.17;;
2570;SDS011;1295;51.130;6.732;2024-02-16T01:35:58;2.60;;;2.40;;
2570;SDS011;1295;51.130;6.732;2024-02-16T01:38:23;2.33;;;2.20;;
2570;SDS011;1295;51.130;6.732;2024-02-16T01:40:49;5.37;;;2.40;;
2570;SDS011;1295;51.130;6.732;2024-02-16T01:43:18;3.07;;;2.73;;
2570;SDS011;1295;51.130;6.732;2024-02-16T01:45:41;2.17;;;2.07;;
2570;SDS011;1295;51.130;6.732;2024-02-16T01:48:07;3.10;;;2.70;;
2570;SDS011;1295;51.130;6.732;2024-02-16T01:50:32;2.77;;;2.50;;
2570;SDS011;1295;51.130;6.732;2024-02-16T01:52:59;2.07;;;1.93;;
2570;SDS011;1295;51.130;6.732;2024-02-16T01:55:25;5.90;;;2.60;;
2570;SDS011;1295;51.130;6.732;2024-02-16T01:57:51;2.83;;;2.63;;
2570;SDS011;1295;51.130;6.732;2024-02-16T02:00:16;2.70;;;2.50;;
2570;SDS011;1295;51.130;6.732;2024-02-16T02:02:43;2.73;;;2.63;;
2570;SDS011;1295;51.130;6.732;2024-02-16T02:05:08;2.90;;;2.47;;
2570;SDS011;1295;51.130;6.732;2024-02-16T02:07:33;2.60;;;2.40;;
2570;SDS011;1295;51.130;6.732;2024-02-16T02:09:59;4.07;;;2.20;;
2570;SDS011;1295;51.130;6.732;2024-02-16T02:12:25;2.10;;;2.00;;
2570;SDS011;1295;51.130;6.732;2024-02-16T02:14:50;2.40;;;2.30;;
2570;SDS011;1295;51.130;6.732;2024-02-16T02:17:17;3.23;;;2.37;;
2570;SDS011;1295;51.130;6.732;2024-02-16T02:19:42;5.60;;;2.43;;
2570;SDS011;1295;51.130;6.732;2024-02-16T02:22:15;2.73;;;2.53;;
2570;SDS011;1295;51.130;6.732;2024-02-16T02:24:41;2.10;;;2.00;;
2570;SDS011;1295;51.130;6.732;2024-02-16T02:27:07;2.20;;;2.00;;
2570;SDS011;1295;51.130;6.732;2024-02-16T02:29:33;1.70;;;1.60;;
2570;SDS011;1295;51.130;6.732;2024-02-16T02:31:58;2.43;;;2.30;;
2570;SDS011;1295;51.130;6.732;2024-02-16T02:34:24;2.93;;;2.43;;
2570;SDS011;1295;51.130;6.732;2024-02-16T02:36:50;2.37;;;2.17;;
2570;SDS011;1295;51.130;6.732;2024-02-16T02:39:15;2.90;;;2.20;;
2570;SDS011;1295;51.130;6.732;2024-02-16T02:41:41;2.17;;;2.03;;
2570;SDS011;1295;51.130;6.732;2024-02-16T02:44:07;2.10;;;2.00;;
2570;SDS011;1295;51.130;6.732;2024-02-16T02:46:33;2.20;;;2.00;;
2570;SDS011;1295;51.130;6.732;2024-02-16T02:48:58;2.00;;;1.90;;
2570;SDS011;1295;51.130;6.732;2024-02-16T02:51:25;2.77;;;2.57;;
2570;SDS011;1295;51.130;6.732;2024-02-16T02:53:51;2.20;;;2.10;;
2570;SDS011;1295;51.130;6.732;2024-02-16T02:56:16;3.23;;;2.17;;
2570;SDS011;1295;51.130;6.732;2024-02-16T02:58:42;2.20;;;2.10;;
2570;SDS011;1295;51.130;6.732;2024-02-16T03:01:08;4.67;;;3.00;;
2570;SDS011;1295;51.130;6.732;2024-02-16T03:03:33;4.90;;;2.80;;
2570;SDS011;1295;51.130;6.732;2024-02-16T03:05:59;2.60;;;2.40;;
2570;SDS011;1295;51.130;6.732;2024-02-16T03:08:25;2.83;;;2.63;;
2570;SDS011;1295;51.130;6.732;2024-02-16T03:10:50;2.20;;;2.10;;
2570;SDS011;1295;51.130;6.732;2024-02-16T03:13:16;1.97;;;1.87;;
2570;SDS011;1295;51.130;6.732;2024-02-16T03:15:41;2.07;;;1.97;;
2570;SDS011;1295;51.130;6.732;2024-02-16T03:18:07;5.67;;;1.90;;
2570;SDS011;1295;51.130;6.732;2024-02-16T03:20:33;2.67;;;2.20;;
2570;SDS011;1295;51.130;6.732;2024-02-16T03:22:59;2.30;;;2.20;;
2570;SDS011;1295;51.130;6.732;2024-02-16T03:25:24;2.50;;;2.30;;
2570;SDS011;1295;51.130;6.732;2024-02-16T03:27:50;2.40;;;2.30;;
2570;SDS011;1295;51.130;6.732;2024-02-16T03:30:15;2.10;;;2.00;;
2570;SDS011;1295;51.130;6.732;2024-02-16T03:32:42;2.60;;;2.40;;
2570;SDS011;1295;51.130;6.732;2024-02-16T03:35:08;2.73;;;2.37;;
2570;SDS011;1295;51.130;6.732;2024-02-16T03:37:33;2.40;;;2.30;;
2570;SDS011;1295;51.130;6.732;2024-02-16T03:40:00;2.90;;;2.70;;
2570;SDS011;1295;51.130;6.732;2024-02-16T03:42:26;2.70;;;2.60;;
2570;SDS011;1295;51.130;6.732;2024-02-16T03:44:52;2.43;;;2.23;;
2570;SDS011;1295;51.130;6.732;2024-02-16T03:47:17;2.53;;;2.40;;
2570;SDS011;1295;51.130;6.732;2024-02-16T03:49:44;2.80;;;2.60;;
2570;SDS011;1295;51.130;6.732;2024-02-16T03:52:09;3.13;;;2.17;;
2570;SDS011;1295;51.130;6.732;2024-02-16T03:54:35;3.93;;;2.30;;
2570;SDS011;1295;51.130;6.732;2024-02-16T03:57:01;2.93;;;2.73;;
2570;SDS011;1295;51.130;6.732;2024-02-16T03:59:27;2.67;;;2.57;;
2570;SDS011;1295;51.130;6.732;2024-02-16T04:02:04;2.70;;;2.50;;
2570;SDS011;1295;51.130;6.732;2024-02-16T04:04:29;3.13;;;2.87;;
2570;SDS011;1295;51.130;6.732;2024-02-16T04:06:55;5.23;;;2.17;;
2570;SDS011;1295;51.130;6.732;2024-02-16T04:09:21;3.20;;;3.00;;
2570;SDS011;1295;51.130;6.732;2024-02-16T04:11:47;3.07;;;2.20;;
2570;SDS011;1295;51.130;6.732;2024-02-16T04:14:13;2.33;;;2.23;;
2570;SDS011;1295;51.130;6.732;2024-02-16T04:16:38;6.43;;;2.83;;
2570;SDS011;1295;51.130;6.732;2024-02-16T04:19:04;3.90;;;2.60;;
2570;SDS011;1295;51.130;6.732;2024-02-16T04:21:29;2.90;;;2.43;;
2570;SDS011;1295;51.130;6.732;2024-02-16T04:23:55;4.80;;;2.73;;
2570;SDS011;1295;51.130;6.732;2024-02-16T04:26:21;4.43;;;2.63;;
2570;SDS011;1295;51.130;6.732;2024-02-16T04:28:46;2.43;;;2.23;;
2570;SDS011;1295;51.130;6.732;2024-02-16T04:31:12;2.77;;;2.47;;
2570;SDS011;1295;51.130;6.732;2024-02-16T04:33:37;2.60;;;2.20;;
2570;SDS011;1295;51.130;6.732;2024-02-16T04:36:05;3.27;;;3.07;;
2570;SDS011;1295;51.130;6.732;2024-02-16T04:38:31;2.50;;;2.40;;
2570;SDS011;1295;51.130;6.732;2024-02-16T04:40:56;2.17;;;2.07;;
2570;SDS011;1295;51.130;6.732;2024-02-16T04:43:22;5.83;;;2.47;;
2570;SDS011;1295;51.130;6.732;2024-02-16T04:45:48;2.80;;;2.60;;
2570;SDS011;1295;51.130;6.732;2024-02-16T04:48:13;2.73;;;2.53;;
2570;SDS011;1295;51.130;6.732;2024-02-16T04:50:39;2.57;;;2.47;;
2570;SDS011;1295;51.130;6.732;2024-02-16T04:53:04;3.43;;;3.13;;
2570;SDS011;1295;51.130;6.732;2024-02-16T04:55:31;4.07;;;2.60;;
2570;SDS011;1295;51.130;6.732;2024-02-16T04:57:57;4.00;;;3.50;;
2570;SDS011;1295;51.130;6.732;2024-02-16T05:00:22;2.93;;;2.73;;
2570;SDS011;1295;51.130;6.732;2024-02-16T05:02:48;3.00;;;2.90;;
2570;SDS011;1295;51.130;6.732;2024-02-16T05:05:14;2.50;;;2.40;;
2570;SDS011;1295;51.130;6.732;2024-02-16T05:07:41;3.30;;;2.60;;
2570;SDS011;1295;51.130;6.732;2024-02-16T05:10:08;2.80;;;2.60;;
2570;SDS011;1295;51.130;6.732;2024-02-16T05:12:33;3.10;;;2.80;;
2570;SDS011;1295;51.130;6.732;2024-02-16T05:14:59;2.97;;;2.70;;
2570;SDS011;1295;51.130;6.732;2024-02-16T05:17:24;3.17;;;2.97;;
2570;SDS011;1295;51.130;6.732;2024-02-16T05:19:50;5.10;;;2.77;;
2570;SDS011;1295;51.130;6.732;2024-02-16T05:22:15;2.43;;;2.20;;
2570;SDS011;1295;51.130;6.732;2024-02-16T05:24:41;5.93;;;3.50;;
2570;SDS011;1295;51.130;6.732;2024-02-16T05:27:07;3.37;;;3.17;;
2570;SDS011;1295;51.130;6.732;2024-02-16T05:29:32;2.60;;;2.40;;
2570;SDS011;1295;51.130;6.732;2024-02-16T05:31:59;2.10;;;2.00;;
2570;SDS011;1295;51.130;6.732;2024-02-16T05:34:24;2.97;;;2.77;;
2570;SDS011;1295;51.130;6.732;2024-02-16T05:36:50;3.23;;;2.77;;
2570;SDS011;1295;51.130;6.732;2024-02-16T05:39:15;2.93;;;2.70;;
2570;SDS011;1295;51.130;6.732;2024-02-16T05:41:46;3.07;;;2.20;;
2570;SDS011;1295;51.130;6.732;2024-02-16T05:44:12;2.83;;;2.63;;
2570;SDS011;1295;51.130;6.732;2024-02-16T05:46:37;6.03;;;2.67;;
2570;SDS011;1295;51.130;6.732;2024-02-16T05:49:03;3.20;;;2.90;;
2570;SDS011;1295;51.130;6.732;2024-02-16T05:51:34;2.23;;;2.13;;
2570;SDS011;1295;51.130;6.732;2024-02-16T05:53:54;5.30;;;3.50;;
2570;SDS011;1295;51.130;6.732;2024-02-16T05:56:20;2.20;;;2.10;;
2570;SDS011;1295;51.130;6.732;2024-02-16T05:58:46;2.80;;;2.60;;
2570;SDS011;1295;51.130;6.732;2024-02-16T06:01:11;2.97;;;2.77;;
2570;SDS011;1295;51.130;6.732;2024-02-16T06:03:37;2.80;;;2.60;;
2570;SDS011;1295;51.130;6.732;2024-02-16T06:06:03;2.47;;;2.30;;
2570;SDS011;1295;51.130;6.732;2024-02-16T06:08:28;4.93;;;3.10;;
2570;SDS011;1295;51.130;6.732;2024-02-16T06:10:54;4.30;;;3.97;;
2570;SDS011;1295;51.130;6.732;2024-02-16T06:13:20;3.53;;;3.33;;
2570;SDS011;1295;51.130;6.732;2024-02-16T06:15:45;4.50;;;3.17;;
2570;SDS011;1295;51.130;6.732;2024-02-16T06:18:11;3.03;;;2.83;;
2570;SDS011;1295;51.130;6.732;2024-02-16T06:20:36;5.27;;;3.20;;
2570;SDS011;1295;51.130;6.732;2024-02-16T06:23:02;3.30;;;3.10;;
2570;SDS011;1295;51.130;6.732;2024-02-16T06:25:29;3.30;;;3.10;;
2570;SDS011;1295;51.130;6.732;2024-02-16T06:27:54;2.80;;;2.70;;
2570;SDS011;1295;51.130;6.732;2024-02-16T06:30:20;5.70;;;3.80;;
2570;SDS011;1295;51.130;6.732;2024-02-16T06:32:45;2.83;;;2.73;;
2570;SDS011;1295;51.130;6.732;2024-02-16T06:35:11;3.47;;;3.23;;
2570;SDS011;1295;51.130;6.732;2024-02-16T06:37:37;3.60;;;3.30;;
2570;SDS011;1295;51.130;6.732;2024-02-16T06:40:03;3.77;;;3.57;;
2570;SDS011;1295;51.130;6.732;2024-02-16T06:42:29;3.50;;;3.30;;
2570;SDS011;1295;51.130;6.732;2024-02-16T06:44:55;2.97;;;2.77;;
2570;SDS011;1295;51.130;6.732;2024-02-16T06:47:20;3.60;;;3.23;;
2570;SDS011;1295;51.130;6.732;2024-02-16T06:49:46;5.13;;;3.73;;
2570;SDS011;1295;51.130;6.732;2024-02-16T06:52:12;4.00;;;3.27;;
2570;SDS011;1295;51.130;6.732;2024-02-16T06:54:38;3.00;;;2.80;;
2570;SDS011;1295;51.130;6.732;2024-02-16T06:57:04;3.90;;;3.70;;
2570;SDS011;1295;51.130;6.732;2024-02-16T06:59:30;3.73;;;3.43;;
2570;SDS011;1295;51.130;6.732;2024-02-16T07:01:56;3.10;;;2.80;;
2570;SDS011;1295;51.130;6.732;2024-02-16T07:04:21;3.43;;;3.00;;
2570;SDS011;1295;51.130;6.732;2024-02-16T07:06:47;3.80;;;3.10;;
2570;SDS011;1295;51.130;6.732;2024-02-16T07:09:13;4.73;;;2.70;;
2570;SDS011;1295;51.130;6.732;2024-02-16T07:11:39;3.60;;;3.10;;
2570;SDS011;1295;51.130;6.732;2024-02-16T07:14:05;3.20;;;2.90;;
2570;SDS011;1295;51.130;6.732;2024-02-16T07:16:31;6.60;;;3.97;;
2570;SDS011;1295;51.130;6.732;2024-02-16T07:18:56;2.63;;;2.47;;
2570;SDS011;1295;51.130;6.732;2024-02-16T07:21:22;3.53;;;3.07;;
2570;SDS011;1295;51.130;6.732;2024-02-16T07:23:48;3.57;;;3.37;;
2570;SDS011;1295;51.130;6.732;2024-02-16T07:26:13;3.33;;;3.10;;
2570;SDS011;1295;51.130;6.732;2024-02-16T07:28:40;4.30;;;3.43;;
2570;SDS011;1295;51.130;6.732;2024-02-16T07:31:05;3.30;;;3.10;;
2570;SDS011;1295;51.130;6.732;2024-02-16T07:33:31;3.40;;;3.10;;
2570;SDS011;1295;51.130;6.732;2024-02-16T07:35:57;4.37;;;4.17;;
2570;SDS011;1295;51.130;6.732;2024-02-16T07:38:23;3.93;;;2.80;;
2570;SDS011;1295;51.130;6.732;2024-02-16T07:40:49;4.73;;;3.50;;
2570;SDS011;1295;51.130;6.732;2024-02-16T07:43:14;3.37;;;3.07;;
2570;SDS011;1295;51.130;6.732;2024-02-16T07:45:40;4.90;;;3.67;;
2570;SDS011;1295;51.130;6.732;2024-02-16T07:48:06;3.60;;;3.40;;
2570;SDS011;1295;51.130;6.732;2024-02-16T07:50:32;3.67;;;3.33;;
2570;SDS011;1295;51.130;6.732;2024-02-16T07:52:58;3.10;;;3.00;;
2570;SDS011;1295;51.130;6.732;2024-02-16T07:55:23;7.90;;;2.97;;
2570;SDS011;1295;51.130;6.732;2024-02-16T07:57:50;3.07;;;2.97;;
2570;SDS011;1295;51.130;6.732;2024-02-16T08:00:15;4.13;;;3.80;;
2570;SDS011;1295;51.130;6.732;2024-02-16T08:02:41;3.13;;;2.93;;
2570;SDS011;1295;51.130;6.732;2024-02-16T08:05:07;3.67;;;3.30;;
2570;SDS011;1295;51.130;6.732;2024-02-16T08:07:33;3.87;;;3.57;;
2570;SDS011;1295;51.130;6.732;2024-02-16T08:10:00;3.67;;;3.47;;
2570;SDS011;1295;51.130;6.732;2024-02-16T08:12:25;4.50;;;3.23;;
2570;SDS011;1295;51.130;6.732;2024-02-16T08:14:51;3.30;;;3.07;;
2570;SDS011;1295;51.130;6.732;2024-02-16T08:17:17;3.10;;;3.00;;
2570;SDS011;1295;51.130;6.732;2024-02-16T08:19:43;2.87;;;2.67;;
2570;SDS011;1295;51.130;6.732;2024-02-16T08:22:08;3.50;;;3.30;;
2570;SDS011;1295;51.130;6.732;2024-02-16T08:24:34;4.20;;;3.17;;
2570;SDS011;1295;51.130;6.732;2024-02-16T08:27:00;2.93;;;2.73;;
2570;SDS011;1295;51.130;6.732;2024-02-16T08:29:25;5.00;;;3.37;;
2570;SDS011;1295;51.130;6.732;2024-02-16T08:31:51;2.57;;;2.40;;
2570;SDS011;1295;51.130;6.732;2024-02-16T08:34:17;5.17;;;2.93;;
2570;SDS011;1295;51.130;6.732;2024-02-16T08:36:46;3.37;;;3.07;;
2570;SDS011;1295;51.130;6.732;2024-02-16T08:39:12;3.27;;;2.70;;
2570;SDS011;1295;51.130;6.732;2024-02-16T08:41:37;3.60;;;2.97;;
2570;SDS011;1295;51.130;6.732;2024-02-16T08:44:04;2.33;;;2.23;;
2570;SDS011;1295;51.130;6.732;2024-02-16T08:46:29;3.80;;;3.00;;
2570;SDS011;1295;51.130;6.732;2024-02-16T08:48:55;2.97;;;2.87;;
2570;SDS011;1295;51.130;6.732;2024-02-16T08:51:20;3.23;;;3.03;;
2570;SDS011;1295;51.130;6.732;2024-02-16T08:53:46;4.33;;;3.60;;
2570;SDS011;1295;51.130;6.732;2024-02-16T08:56:11;5.90;;;3.50;;
2570;SDS011;1295;51.130;6.732;2024-02-16T08:58:37;4.10;;;3.43;;
2570;SDS011;1295;51.130;6.732;2024-02-16T09:01:03;3.80;;;3.60;;
2570;SDS011;1295;51.130;6.732;2024-02-16T09:03:29;3.27;;;2.33;;
2570;SDS011;1295;51.130;6.732;2024-02-16T09:05:55;4.90;;;3.20;;
2570;SDS011;1295;51.130;6.732;2024-02-16T09:08:20;4.07;;;3.67;;
2570;SDS011;1295;51.130;6.732;2024-02-16T09:10:46;3.67;;;3.37;;
2570;SDS011;1295;51.130;6.732;2024-02-16T09:13:11;3.10;;;2.70;;
2570;SDS011;1295;51.130;6.732;2024-02-16T09:15:37;2.83;;;2.47;;
2570;SDS011;1295;51.130;6.732;2024-02-16T09:18:03;3.47;;;3.30;;
2570;SDS011;1295;51.130;6.732;2024-02-16T09:20:30;3.00;;;2.70;;
2570;SDS011;1295;51.130;6.732;2024-02-16T09:22:56;2.70;;;2.60;;
2570;SDS011;1295;51.130;6.732;2024-02-16T09:25:21;3.23;;;2.90;;
2570;SDS011;1295;51.130;6.732;2024-02-16T09:27:47;7.70;;;3.90;;
2570;SDS011;1295;51.130;6.732;2024-02-16T09:30:13;3.40;;;3.17;;
2570;SDS011;1295;51.130;6.732;2024-02-16T09:32:39;3.53;;;2.80;;
2570;SDS011;1295;51.130;6.732;2024-02-16T09:35:05;3.43;;;2.90;;
2570;SDS011;1295;51.130;6.732;2024-02-16T09:37:31;2.70;;;2.50;;
2570;SDS011;1295;51.130;6.732;2024-02-16T09:39:57;3.50;;;3.20;;
2570;SDS011;1295;51.130;6.732;2024-02-16T09:42:23;4.40;;;3.73;;
2570;SDS011;1295;51.130;6.732;2024-02-16T09:44:49;3.87;;;3.37;;
2570;SDS011;1295;51.130;6.732;2024-02-16T09:47:15;9.20;;;3.90;;
2570;SDS011;1295;51.130;6.732;2024-02-16T09:49:40;4.43;;;4.03;;
2570;SDS011;1295;51.130;6.732;2024-02-16T09:52:07;4.27;;;3.83;;
2570;SDS011;1295;51.130;6.732;2024-02-16T09:54:32;3.50;;;3.30;;
2570;SDS011;1295;51.130;6.732;2024-02-16T09:56:57;5.20;;;3.80;;
2570;SDS011;1295;51.130;6.732;2024-02-16T09:59:23;5.63;;;4.33;;
2570;SDS011;1295;51.130;6.732;2024-02-16T10:01:58;6.03;;;3.97;;
2570;SDS011;1295;51.130;6.732;2024-02-16T10:04:14;5.20;;;4.37;;
2570;SDS011;1295;51.130;6.732;2024-02-16T10:06:45;18.50;;;4.60;;
2570;SDS011;1295;51.130;6.732;2024-02-16T10:09:10;8.80;;;6.00;;
2570;SDS011;1295;51.130;6.732;2024-02-16T10:11:36;4.57;;;4.27;;
2570;SDS011;1295;51.130;6.732;2024-02-16T10:14:03;5.13;;;3.33;;
2570;SDS011;1295;51.130;6.732;2024-02-16T10:16:28;4.60;;;4.30;;
2570;SDS011;1295;51.130;6.732;2024-02-16T10:18:54;4.87;;;4.57;;
2570;SDS011;1295;51.130;6.732;2024-02-16T10:21:23;3.90;;;3.70;;
2570;SDS011;1295;51.130;6.732;2024-02-16T10:24:00;5.00;;;3.93;;
2570;SDS011;1295;51.130;6.732;2024-02-16T10:26:25;4.73;;;4.30;;
2570;SDS011;1295;51.130;6.732;2024-02-16T10:28:51;7.63;;;4.47;;
2570;SDS011;1295;51.130;6.732;2024-02-16T10:31:16;5.93;;;4.40;;
2570;SDS011;1295;51.130;6.732;2024-02-16T10:33:42;4.67;;;4.37;;
2570;SDS011;1295;51.130;6.732;2024-02-16T10:36:07;5.10;;;4.60;;
2570;SDS011;1295;51.130;6.732;2024-02-16T10:38:33;4.70;;;4.07;;
2570;SDS011;1295;51.130;6.732;2024-02-16T10:40:59;5.07;;;4.63;;
2570;SDS011;1295;51.130;6.732;2024-02-16T10:43:24;5.47;;;4.90;;
2570;SDS011;1295;51.130;6.732;2024-02-16T10:45:50;4.67;;;4.40;;
2570;SDS011;1295;51.130;6.732;2024-02-16T10:48:16;6.23;;;4.77;;
2570;SDS011;1295;51.130;6.732;2024-02-16T10:50:42;4.23;;;3.90;;
2570;SDS011;1295;51.130;6.732;2024-02-16T10:53:14;4.37;;;4.07;;
2570;SDS011;1295;51.130;6.732;2024-02-16T10:55:38;4.50;;;4.20;;
2570;SDS011;1295;51.130;6.732;2024-02-16T10:58:06;4.87;;;4.47;;
2570;SDS011;1295;51.130;6.732;2024-02-16T11:00:29;7.93;;;4.53;;
2570;SDS011;1295;51.130;6.732;2024-02-16T11:02:55;5.50;;;4.00;;
2570;SDS011;1295;51.130;6.732;2024-02-16T11:05:31;4.27;;;3.97;;
2570;SDS011;1295;51.130;6.732;2024-02-16T11:08:03;3.87;;;3.67;;
2570;SDS011;1295;51.130;6.732;2024-02-16T11:10:30;11.73;;;4.63;;
2570;SDS011;1295;51.130;6.732;2024-02-16T11:13:01;6.03;;;4.40;;
2570;SDS011;1295;51.130;6.732;2024-02-16T11:15:27;8.63;;;4.90;;
2570;SDS011;1295;51.130;6.732;2024-02-16T11:17:55;8.27;;;4.60;;
2570;SDS011;1295;51.130;6.732;2024-02-16T11:20:19;5.00;;;4.60;;
2570;SDS011;1295;51.130;6.732;2024-02-16T11:22:44;5.07;;;4.63;;
2570;SDS011;1295;51.130;6.732;2024-02-16T11:25:10;10.57;;;4.30;;
2570;SDS011;1295;51.130;6.732;2024-02-16T11:27:36;11.57;;;5.67;;
2570;SDS011;1295;51.130;6.732;2024-02-16T11:30:03;5.03;;;3.90;;
2570;SDS011;1295;51.130;6.732;2024-02-16T11:32:32;5.93;;;4.37;;
2570;SDS011;1295;51.130;6.732;2024-02-16T11:35:05;5.23;;;4.43;;
2570;SDS011;1295;51.130;6.732;2024-02-16T11:37:31;5.83;;;5.17;;
2570;SDS011;1295;51.130;6.732;2024-02-16T11:39:57;4.80;;;4.10;;
2570;SDS011;1295;51.130;6.732;2024-02-16T11:42:23;4.40;;;4.20;;
2570;SDS011;1295;51.130;6.732;2024-02-16T11:44:50;4.80;;;4.40;;
2570;SDS011;1295;51.130;6.732;2024-02-16T11:47:18;6.70;;;5.17;;
2570;SDS011;1295;51.130;6.732;2024-02-16T11:49:41;9.10;;;5.40;;
2570;SDS011;1295;51.130;6.732;2024-02-16T11:52:07;4.47;;;4.10;;
2570;SDS011;1295;51.130;6.732;2024-02-16T11:54:33;5.50;;;5.00;;
2570;SDS011;1295;51.130;6.732;2024-02-16T11:56:58;6.97;;;5.47;;
2570;SDS011;1295;51.130;6.732;2024-02-16T11:59:24;8.63;;;5.67;;
2570;SDS011;1295;51.130;6.732;2024-02-16T12:01:52;4.93;;;4.73;;
2570;SDS011;1295;51.130;6.732;2024-02-16T12:04:19;8.83;;;8.20;;
2570;SDS011;1295;51.130;6.732;2024-02-16T12:06:45;7.30;;;5.20;;
2570;SDS011;1295;51.130;6.732;2024-02-16T12:09:10;5.87;;;5.33;;
2570;SDS011;1295;51.130;6.732;2024-02-16T12:11:36;6.50;;;6.00;;
2570;SDS011;1295;51.130;6.732;2024-02-16T12:14:02;7.23;;;6.60;;
2570;SDS011;1295;51.130;6.732;2024-02-16T12:16:27;4.83;;;4.03;;
2570;SDS011;1295;51.130;6.732;2024-02-16T12:19:01;8.67;;;5.30;;
2570;SDS011;1295;51.130;6.732;2024-02-16T12:21:20;7.43;;;6.87;;
2570;SDS011;1295;51.130;6.732;2024-02-16T12:23:46;6.87;;;6.37;;
2570;SDS011;1295;51.130;6.732;2024-02-16T12:26:11;5.27;;;4.83;;
2570;SDS011;1295;51.130;6.732;2024-02-16T12:28:37;6.80;;;6.30;;
2570;SDS011;1295;51.130;6.732;2024-02-16T12:31:03;6.83;;;6.17;;
2570;SDS011;1295;51.130;6.732;2024-02-16T12:33:29;6.57;;;5.70;;
2570;SDS011;1295;51.130;6.732;2024-02-16T12:36:00;12.03;;;6.93;;
2570;SDS011;1295;51.130;6.732;2024-02-16T12:38:25;6.03;;;5.63;;
2570;SDS011;1295;51.130;6.732;2024-02-16T12:40:51;6.30;;;5.70;;
2570;SDS011;1295;51.130;6.732;2024-02-16T12:43:16;6.60;;;6.10;;
2570;SDS011;1295;51.130;6.732;2024-02-16T12:45:42;7.07;;;5.83;;
2570;SDS011;1295;51.130;6.732;2024-02-16T12:48:08;6.60;;;6.00;;
2570;SDS011;1295;51.130;6.732;2024-02-16T12:50:33;8.13;;;4.77;;
2570;SDS011;1295;51.130;6.732;2024-02-16T12:52:59;6.37;;;5.90;;
2570;SDS011;1295;51.130;6.732;2024-02-16T12:55:30;11.63;;;7.47;;
2570;SDS011;1295;51.130;6.732;2024-02-16T12:57:55;13.60;;;6.47;;
2570;SDS011;1295;51.130;6.732;2024-02-16T13:00:21;7.90;;;6.30;;
2570;SDS011;1295;51.130;6.732;2024-02-16T13:02:47;7.37;;;6.20;;
2570;SDS011;1295;51.130;6.732;2024-02-16T13:05:12;8.90;;;6.23;;
2570;SDS011;1295;51.130;6.732;2024-02-16T13:07:38;5.60;;;5.17;;
2570;SDS011;1295;51.130;6.732;2024-02-16T13:10:04;9.93;;;5.73;;
2570;SDS011;1295;51.130;6.732;2024-02-16T13:12:31;14.20;;;7.13;;
2570;SDS011;1295;51.130;6.732;2024-02-16T13:14:56;8.60;;;7.40;;
2570;SDS011;1295;51.130;6.732;2024-02-16T13:17:22;12.13;;;6.90;;
2570;SDS011;1295;51.130;6.732;2024-02-16T13:19:47;11.73;;;8.10;;
2570;SDS011;1295;51.130;6.732;2024-02-16T13:22:13;7.47;;;6.70;;
2570;SDS011;1295;51.130;6.732;2024-02-16T13:24:39;7.93;;;7.13;;
2570;SDS011;1295;51.130;6.732;2024-02-16T13:27:04;7.60;;;7.17;;
2570;SDS011;1295;51.130;6.732;2024-02-16T13:29:30;7.87;;;7.00;;
2570;SDS011;1295;51.130;6.732;2024-02-16T13:31:56;8.07;;;7.53;;
2570;SDS011;1295;51.130;6.732;2024-02-16T13:34:21;8.60;;;6.50;;
2570;SDS011;1295;51.130;6.732;2024-02-16T13:36:47;8.30;;;7.60;;
2570;SDS011;1295;51.130;6.732;2024-02-16T13:39:13;8.93;;;8.33;;
2570;SDS011;1295;51.130;6.732;2024-02-16T13:41:38;9.47;;;8.50;;
2570;SDS011;1295;51.130;6.732;2024-02-16T13:44:04;12.23;;;7.50;;
2570;SDS011;1295;51.130;6.732;2024-02-16T13:46:30;12.70;;;9.13;;
2570;SDS011;1295;51.130;6.732;2024-02-16T13:48:55;9.47;;;8.17;;
2570;SDS011;1295;51.130;6.732;2024-02-16T13:51:21;10.30;;;9.30;;
2570;SDS011;1295;51.130;6.732;2024-02-16T13:53:47;10.27;;;9.33;;
2570;SDS011;1295;51.130;6.732;2024-02-16T13:56:12;9.10;;;8.33;;
2570;SDS011;1295;51.130;6.732;2024-02-16T13:58:38;12.20;;;8.50;;
2570;SDS011;1295;51.130;6.732;2024-02-16T14:01:03;11.73;;;9.93;;
2570;SDS011;1295;51.130;6.732;2024-02-16T14:03:29;12.07;;;7.87;;
2570;SDS011;1295;51.130;6.732;2024-02-16T14:05:55;9.40;;;8.63;;
2570;SDS011;1295;51.130;6.732;2024-02-16T14:08:20;10.03;;;8.80;;
2570;SDS011;1295;51.130;6.732;2024-02-16T14:10:46;11.10;;;10.00;;
2570;SDS011;1295;51.130;6.732;2024-02-16T14:13:11;9.67;;;8.87;;
2570;SDS011;1295;51.130;6.732;2024-02-16T14:15:37;11.73;;;10.57;;
2570;SDS011;1295;51.130;6.732;2024-02-16T14:18:03;9.13;;;8.30;;
2570;SDS011;1295;51.130;6.732;2024-02-16T14:20:29;9.40;;;8.40;;
2570;SDS011;1295;51.130;6.732;2024-02-16T14:22:54;11.60;;;10.00;;
2570;SDS011;1295;51.130;6.732;2024-02-16T14:25:22;10.50;;;9.57;;
2570;SDS011;1295;51.130;6.732;2024-02-16T14:27:46;15.93;;;11.03;;
2570;SDS011;1295;51.130;6.732;2024-02-16T14:30:12;12.17;;;10.83;;
2570;SDS011;1295;51.130;6.732;2024-02-16T14:32:38;17.43;;;9.30;;
2570;SDS011;1295;51.130;6.732;2024-02-16T14:35:04;11.73;;;8.67;;
2570;SDS011;1295;51.130;6.732;2024-02-16T14:37:31;11.23;;;10.07;;
2570;SDS011;1295;51.130;6.732;2024-02-16T14:39:57;10.80;;;10.00;;
2570;SDS011;1295;51.130;6.732;2024-02-16T14:42:23;9.23;;;8.50;;
2570;SDS011;1295;51.130;6.732;2024-02-16T14:44:48;9.37;;;8.57;;
2570;SDS011;1295;51.130;6.732;2024-02-16T14:47:14;10.90;;;9.90;;
2570;SDS011;1295;51.130;6.732;2024-02-16T14:49:39;8.87;;;8.17;;
2570;SDS011;1295;51.130;6.732;2024-02-16T14:52:05;9.13;;;8.53;;
2570;SDS011;1295;51.130;6.732;2024-02-16T14:54:31;9.50;;;8.90;;
2570;SDS011;1295;51.130;6.732;2024-02-16T14:56:57;9.20;;;8.60;;
2570;SDS011;1295;51.130;6.732;2024-02-16T14:59:23;11.67;;;10.53;;
2570;SDS011;1295;51.130;6.732;2024-02-16T15:01:55;11.27;;;10.20;;
2570;SDS011;1295;51.130;6.732;2024-02-16T15:04:21;10.80;;;9.83;;
2570;SDS011;1295;51.130;6.732;2024-02-16T15:06:47;9.67;;;8.97;;